sensor_id;sensor_type;location;lat;lon;timestamp;P1;durP1;ratioP1;P2;durP2;ratioP2
37869;SDS011;62531;53.326;-1.368;2022-08-27T00:00:57;4.72;;;1.50;;
37869;SDS011;62531;53.326;-1.368;2022-08-27T00:04:58;7.00;;;1.50;;
37869;SDS011;62531;53.326;-1.368;2022-08-27T00:08:59;4.78;;;1.20;;
37869;SDS011;62531;53.326;-1.368;2022-08-27T00:13:00;5.38;;;1.20;;
37869;SDS011;62531;53.326;-1.368;2022-08-27T00:17:04;5.17;;;1.50;;
37869;SDS011;62531;53.326;-1.368;2022-08-27T00:21:06;5.18;;;1.50;;
37869;SDS011;62531;53.326;-1.368;2022-08-27T00:25:08;5.60;;;1.67;;
37869;SDS011;62531;53.326;-1.368;2022-08-27T00:29:09;4.45;;;1.40;;
37869;SDS011;62531;53.326;-1.368;2022-08-27T00:33:11;4.83;;;1.40;;
37869;SDS011;62531;53.326;-1.368;2022-08-27T00:37:13;4.53;;;1.50;;
37869;SDS011;62531;53.326;-1.368;2022-08-27T00:41:16;4.95;;;1.75;;
37869;SDS011;62531;53.326;-1.368;2022-08-27T00:45:19;4.80;;;1.20;;
37869;SDS011;62531;53.326;-1.368;2022-08-27T00:53:24;5.13;;;1.30;;
37869;SDS011;62531;53.326;-1.368;2022-08-27T00:57:29;4.63;;;1.50;;
37869;SDS011;62531;53.326;-1.368;2022-08-27T01:01:33;4.57;;;1.38;;
37869;SDS011;62531;53.326;-1.368;2022-08-27T01:05:34;4.75;;;1.52;;
37869;SDS011;62531;53.326;-1.368;2022-08-27T01:09:38;4.30;;;1.42;;
37869;SDS011;62531;53.326;-1.368;2022-08-27T01:13:41;4.33;;;1.40;;
37869;SDS011;62531;53.326;-1.368;2022-08-27T01:49:56;4.85;;;1.60;;
37869;SDS011;62531;53.326;-1.368;2022-08-27T01:53:59;4.82;;;1.60;;
37869;SDS011;62531;53.326;-1.368;2022-08-27T01:58:01;4.47;;;1.30;;
37869;SDS011;62531;53.326;-1.368;2022-08-27T02:02:02;5.93;;;1.70;;
37869;SDS011;62531;53.326;-1.368;2022-08-27T02:06:05;5.40;;;1.50;;
37869;SDS011;62531;53.326;-1.368;2022-08-27T02:10:08;3.85;;;1.30;;
37869;SDS011;62531;53.326;-1.368;2022-08-27T02:14:11;5.53;;;1.50;;
37869;SDS011;62531;53.326;-1.368;2022-08-27T02:18:13;4.97;;;1.58;;
37869;SDS011;62531;53.326;-1.368;2022-08-27T02:22:15;4.38;;;1.60;;
37869;SDS011;62531;53.326;-1.368;2022-08-27T02:26:16;5.13;;;1.67;;
37869;SDS011;62531;53.326;-1.368;2022-08-27T02:30:20;5.13;;;1.48;;
37869;SDS011;62531;53.326;-1.368;2022-08-27T02:34:23;4.50;;;1.40;;
37869;SDS011;62531;53.326;-1.368;2022-08-27T02:38:25;4.40;;;1.50;;
37869;SDS011;62531;53.326;-1.368;2022-08-27T02:42:27;5.60;;;1.60;;
37869;SDS011;62531;53.326;-1.368;2022-08-27T02:46:28;5.32;;;1.75;;
37869;SDS011;62531;53.326;-1.368;2022-08-27T02:50:29;4.40;;;1.40;;
37869;SDS011;62531;53.326;-1.368;2022-08-27T02:54:30;4.67;;;1.30;;
37869;SDS011;62531;53.326;-1.368;2022-08-27T02:58:32;4.57;;;1.23;;
37869;SDS011;62531;53.326;-1.368;2022-08-27T03:02:34;4.82;;;1.27;;
37869;SDS011;62531;53.326;-1.368;2022-08-27T03:06:36;4.47;;;1.30;;
37869;SDS011;62531;53.326;-1.368;2022-08-27T03:10:37;5.35;;;1.20;;
37869;SDS011;62531;53.326;-1.368;2022-08-27T03:14:39;4.60;;;1.70;;
37869;SDS011;62531;53.326;-1.368;2022-08-27T03:18:40;4.50;;;1.63;;
37869;SDS011;62531;53.326;-1.368;2022-08-27T03:22:41;5.33;;;1.40;;
37869;SDS011;62531;53.326;-1.368;2022-08-27T03:26:42;5.47;;;1.42;;
37869;SDS011;62531;53.326;-1.368;2022-08-27T03:30:48;5.03;;;1.40;;
37869;SDS011;62531;53.326;-1.368;2022-08-27T03:34:52;4.83;;;1.33;;
37869;SDS011;62531;53.326;-1.368;2022-08-27T03:38:53;4.43;;;1.35;;
37869;SDS011;62531;53.326;-1.368;2022-08-27T03:42:54;4.18;;;1.40;;
37869;SDS011;62531;53.326;-1.368;2022-08-27T03:46:55;4.83;;;1.43;;
37869;SDS011;62531;53.326;-1.368;2022-08-27T03:50:57;5.03;;;1.45;;
37869;SDS011;62531;53.326;-1.368;2022-08-27T03:54:58;4.70;;;1.45;;
37869;SDS011;62531;53.326;-1.368;2022-08-27T03:59:01;4.38;;;1.52;;
37869;SDS011;62531;53.326;-1.368;2022-08-27T04:03:02;4.10;;;1.60;;
37869;SDS011;62531;53.326;-1.368;2022-08-27T04:07:05;4.75;;;1.80;;
37869;SDS011;62531;53.326;-1.368;2022-08-27T04:11:06;3.90;;;1.40;;
37869;SDS011;62531;53.326;-1.368;2022-08-27T04:15:08;4.50;;;1.47;;
37869;SDS011;62531;53.326;-1.368;2022-08-27T04:19:10;4.50;;;1.50;;
37869;SDS011;62531;53.326;-1.368;2022-08-27T04:23:12;4.70;;;1.60;;
37869;SDS011;62531;53.326;-1.368;2022-08-27T04:27:13;5.97;;;1.77;;
37869;SDS011;62531;53.326;-1.368;2022-08-27T04:31:15;5.28;;;1.52;;
37869;SDS011;62531;53.326;-1.368;2022-08-27T04:35:17;4.07;;;1.42;;
37869;SDS011;62531;53.326;-1.368;2022-08-27T04:39:18;4.43;;;1.40;;
37869;SDS011;62531;53.326;-1.368;2022-08-27T04:43:20;4.23;;;1.40;;
37869;SDS011;62531;53.326;-1.368;2022-08-27T04:47:21;5.68;;;1.95;;
37869;SDS011;62531;53.326;-1.368;2022-08-27T04:51:22;5.45;;;1.83;;
37869;SDS011;62531;53.326;-1.368;2022-08-27T04:55:24;5.00;;;1.57;;
37869;SDS011;62531;53.326;-1.368;2022-08-27T04:59:25;4.90;;;1.60;;
37869;SDS011;62531;53.326;-1.368;2022-08-27T05:03:26;4.60;;;1.40;;
37869;SDS011;62531;53.326;-1.368;2022-08-27T05:07:28;6.73;;;2.63;;
37869;SDS011;62531;53.326;-1.368;2022-08-27T05:11:30;5.15;;;1.45;;
37869;SDS011;62531;53.326;-1.368;2022-08-27T05:15:34;5.07;;;1.65;;
37869;SDS011;62531;53.326;-1.368;2022-08-27T05:19:36;5.15;;;1.77;;
37869;SDS011;62531;53.326;-1.368;2022-08-27T05:23:38;5.00;;;1.70;;
37869;SDS011;62531;53.326;-1.368;2022-08-27T05:27:39;6.15;;;1.80;;
37869;SDS011;62531;53.326;-1.368;2022-08-27T05:31:40;4.82;;;1.77;;
37869;SDS011;62531;53.326;-1.368;2022-08-27T05:35:43;5.57;;;2.03;;
37869;SDS011;62531;53.326;-1.368;2022-08-27T05:39:46;5.38;;;1.63;;
37869;SDS011;62531;53.326;-1.368;2022-08-27T05:43:48;5.50;;;2.10;;
37869;SDS011;62531;53.326;-1.368;2022-08-27T05:47:49;5.50;;;2.20;;
37869;SDS011;62531;53.326;-1.368;2022-08-27T05:51:50;4.45;;;1.70;;
37869;SDS011;62531;53.326;-1.368;2022-08-27T05:55:51;4.97;;;2.00;;
37869;SDS011;62531;53.326;-1.368;2022-08-27T05:59:52;4.88;;;1.80;;
37869;SDS011;62531;53.326;-1.368;2022-08-27T06:04:12;5.00;;;1.90;;
37869;SDS011;62531;53.326;-1.368;2022-08-27T06:08:15;7.13;;;2.13;;
37869;SDS011;62531;53.326;-1.368;2022-08-27T06:12:16;5.22;;;1.65;;
37869;SDS011;62531;53.326;-1.368;2022-08-27T06:16:17;5.40;;;1.90;;
37869;SDS011;62531;53.326;-1.368;2022-08-27T06:20:19;5.70;;;1.92;;
37869;SDS011;62531;53.326;-1.368;2022-08-27T06:24:21;5.20;;;1.70;;
37869;SDS011;62531;53.326;-1.368;2022-08-27T06:28:23;5.23;;;1.90;;
37869;SDS011;62531;53.326;-1.368;2022-08-27T06:32:30;5.35;;;2.00;;
37869;SDS011;62531;53.326;-1.368;2022-08-27T06:36:32;5.35;;;1.77;;
37869;SDS011;62531;53.326;-1.368;2022-08-27T06:40:41;5.18;;;1.90;;
37869;SDS011;62531;53.326;-1.368;2022-08-27T06:44:43;5.60;;;2.17;;
37869;SDS011;62531;53.326;-1.368;2022-08-27T06:48:45;5.78;;;1.70;;
37869;SDS011;62531;53.326;-1.368;2022-08-27T06:52:47;5.32;;;1.95;;
37869;SDS011;62531;53.326;-1.368;2022-08-27T06:56:49;5.50;;;1.80;;
37869;SDS011;62531;53.326;-1.368;2022-08-27T07:00:50;6.03;;;1.92;;
37869;SDS011;62531;53.326;-1.368;2022-08-27T07:04:51;5.35;;;2.05;;
37869;SDS011;62531;53.326;-1.368;2022-08-27T07:08:53;5.70;;;2.20;;
37869;SDS011;62531;53.326;-1.368;2022-08-27T07:12:56;6.43;;;2.10;;
37869;SDS011;62531;53.326;-1.368;2022-08-27T07:16:59;6.20;;;2.10;;
37869;SDS011;62531;53.326;-1.368;2022-08-27T07:21:01;5.32;;;2.42;;
37869;SDS011;62531;53.326;-1.368;2022-08-27T07:25:06;6.10;;;2.47;;
37869;SDS011;62531;53.326;-1.368;2022-08-27T07:29:11;5.97;;;2.33;;
37869;SDS011;62531;53.326;-1.368;2022-08-27T07:33:14;5.65;;;2.25;;
37869;SDS011;62531;53.326;-1.368;2022-08-27T07:37:15;7.17;;;2.13;;
37869;SDS011;62531;53.326;-1.368;2022-08-27T07:41:17;5.78;;;2.45;;
37869;SDS011;62531;53.326;-1.368;2022-08-27T07:45:19;6.03;;;2.33;;
37869;SDS011;62531;53.326;-1.368;2022-08-27T07:49:21;5.80;;;2.20;;
37869;SDS011;62531;53.326;-1.368;2022-08-27T07:53:23;6.40;;;1.92;;
37869;SDS011;62531;53.326;-1.368;2022-08-27T07:57:25;5.53;;;2.10;;
37869;SDS011;62531;53.326;-1.368;2022-08-27T08:01:27;5.53;;;2.10;;
37869;SDS011;62531;53.326;-1.368;2022-08-27T08:05:29;5.60;;;2.10;;
37869;SDS011;62531;53.326;-1.368;2022-08-27T08:09:31;6.30;;;2.30;;
37869;SDS011;62531;53.326;-1.368;2022-08-27T08:13:32;6.53;;;2.38;;
37869;SDS011;62531;53.326;-1.368;2022-08-27T08:17:34;6.23;;;2.30;;
37869;SDS011;62531;53.326;-1.368;2022-08-27T08:21:36;6.55;;;2.35;;
37869;SDS011;62531;53.326;-1.368;2022-08-27T08:25:38;6.50;;;2.60;;
37869;SDS011;62531;53.326;-1.368;2022-08-27T08:29:41;5.83;;;2.17;;
37869;SDS011;62531;53.326;-1.368;2022-08-27T08:33:42;5.45;;;2.17;;
37869;SDS011;62531;53.326;-1.368;2022-08-27T08:37:44;5.50;;;2.20;;
37869;SDS011;62531;53.326;-1.368;2022-08-27T08:41:55;6.95;;;2.45;;
37869;SDS011;62531;53.326;-1.368;2022-08-27T08:46:24;7.17;;;2.27;;
37869;SDS011;62531;53.326;-1.368;2022-08-27T08:50:32;5.68;;;2.03;;
37869;SDS011;62531;53.326;-1.368;2022-08-27T08:54:38;6.13;;;2.20;;
37869;SDS011;62531;53.326;-1.368;2022-08-27T08:58:45;5.93;;;2.27;;
37869;SDS011;62531;53.326;-1.368;2022-08-27T09:03:08;6.57;;;2.70;;
37869;SDS011;62531;53.326;-1.368;2022-08-27T09:07:18;6.18;;;2.28;;
37869;SDS011;62531;53.326;-1.368;2022-08-27T09:16:00;6.45;;;2.25;;
37869;SDS011;62531;53.326;-1.368;2022-08-27T09:20:03;5.88;;;1.92;;
37869;SDS011;62531;53.326;-1.368;2022-08-27T09:24:10;6.85;;;2.35;;
37869;SDS011;62531;53.326;-1.368;2022-08-27T09:28:24;6.03;;;2.43;;
37869;SDS011;62531;53.326;-1.368;2022-08-27T09:32:53;5.97;;;2.10;;
37869;SDS011;62531;53.326;-1.368;2022-08-27T09:37:01;6.75;;;2.03;;
37869;SDS011;62531;53.326;-1.368;2022-08-27T09:41:06;7.57;;;2.13;;
37869;SDS011;62531;53.326;-1.368;2022-08-27T09:45:25;7.78;;;2.58;;
37869;SDS011;62531;53.326;-1.368;2022-08-27T09:49:28;5.88;;;2.40;;
37869;SDS011;62531;53.326;-1.368;2022-08-27T09:53:38;6.53;;;2.07;;
37869;SDS011;62531;53.326;-1.368;2022-08-27T09:57:45;6.05;;;2.10;;
37869;SDS011;62531;53.326;-1.368;2022-08-27T10:01:56;5.70;;;2.10;;
37869;SDS011;62531;53.326;-1.368;2022-08-27T10:06:02;5.88;;;2.00;;
37869;SDS011;62531;53.326;-1.368;2022-08-27T10:10:17;5.33;;;2.10;;
37869;SDS011;62531;53.326;-1.368;2022-08-27T10:14:28;6.65;;;2.22;;
37869;SDS011;62531;53.326;-1.368;2022-08-27T10:22:51;5.93;;;2.10;;
37869;SDS011;62531;53.326;-1.368;2022-08-27T10:35:42;5.87;;;1.87;;
37869;SDS011;62531;53.326;-1.368;2022-08-27T10:48:36;5.57;;;1.90;;
37869;SDS011;62531;53.326;-1.368;2022-08-27T10:52:40;5.63;;;2.20;;
37869;SDS011;62531;53.326;-1.368;2022-08-27T10:56:51;5.53;;;1.90;;
37869;SDS011;62531;53.326;-1.368;2022-08-27T11:05:22;5.73;;;2.13;;
37869;SDS011;62531;53.326;-1.368;2022-08-27T11:09:36;6.10;;;1.92;;
37869;SDS011;62531;53.326;-1.368;2022-08-27T11:13:48;6.13;;;1.90;;
37869;SDS011;62531;53.326;-1.368;2022-08-27T11:22:19;6.72;;;1.80;;
37869;SDS011;62531;53.326;-1.368;2022-08-27T11:26:38;7.30;;;2.30;;
37869;SDS011;62531;53.326;-1.368;2022-08-27T11:34:52;6.37;;;1.87;;
37869;SDS011;62531;53.326;-1.368;2022-08-27T11:43:43;5.18;;;1.90;;
37869;SDS011;62531;53.326;-1.368;2022-08-27T11:47:54;6.30;;;2.60;;
37869;SDS011;62531;53.326;-1.368;2022-08-27T11:52:02;6.53;;;1.90;;
37869;SDS011;62531;53.326;-1.368;2022-08-27T11:56:14;5.75;;;2.42;;
37869;SDS011;62531;53.326;-1.368;2022-08-27T12:08:32;5.65;;;2.08;;
37869;SDS011;62531;53.326;-1.368;2022-08-27T12:17:24;6.63;;;1.90;;
37869;SDS011;62531;53.326;-1.368;2022-08-27T12:25:39;5.93;;;2.00;;
37869;SDS011;62531;53.326;-1.368;2022-08-27T12:34:24;5.35;;;2.30;;
37869;SDS011;62531;53.326;-1.368;2022-08-27T12:47:14;6.05;;;2.15;;
37869;SDS011;62531;53.326;-1.368;2022-08-27T12:51:33;5.20;;;1.80;;
37869;SDS011;62531;53.326;-1.368;2022-08-27T13:04:17;5.60;;;2.13;;
37869;SDS011;62531;53.326;-1.368;2022-08-27T13:08:29;6.80;;;1.70;;
37869;SDS011;62531;53.326;-1.368;2022-08-27T13:12:32;5.33;;;1.83;;
37869;SDS011;62531;53.326;-1.368;2022-08-27T13:16:34;5.78;;;2.15;;
37869;SDS011;62531;53.326;-1.368;2022-08-27T13:20:37;7.63;;;2.03;;
37869;SDS011;62531;53.326;-1.368;2022-08-27T13:24:47;5.10;;;1.80;;
37869;SDS011;62531;53.326;-1.368;2022-08-27T13:28:49;6.70;;;2.03;;
37869;SDS011;62531;53.326;-1.368;2022-08-27T13:32:52;6.75;;;2.28;;
37869;SDS011;62531;53.326;-1.368;2022-08-27T13:41:06;5.57;;;1.70;;
37869;SDS011;62531;53.326;-1.368;2022-08-27T13:45:09;9.52;;;2.00;;
37869;SDS011;62531;53.326;-1.368;2022-08-27T13:49:19;6.22;;;1.80;;
37869;SDS011;62531;53.326;-1.368;2022-08-27T13:53:27;5.47;;;1.80;;
37869;SDS011;62531;53.326;-1.368;2022-08-27T13:57:49;6.35;;;2.03;;
37869;SDS011;62531;53.326;-1.368;2022-08-27T14:05:58;6.33;;;2.40;;
37869;SDS011;62531;53.326;-1.368;2022-08-27T14:10:02;5.65;;;1.60;;
37869;SDS011;62531;53.326;-1.368;2022-08-27T14:14:24;5.05;;;1.83;;
37869;SDS011;62531;53.326;-1.368;2022-08-27T14:18:27;7.10;;;2.03;;
37869;SDS011;62531;53.326;-1.368;2022-08-27T14:22:31;5.03;;;1.63;;
37869;SDS011;62531;53.326;-1.368;2022-08-27T14:26:34;6.78;;;1.60;;
37869;SDS011;62531;53.326;-1.368;2022-08-27T14:30:36;5.53;;;1.70;;
37869;SDS011;62531;53.326;-1.368;2022-08-27T14:34:37;5.70;;;1.80;;
37869;SDS011;62531;53.326;-1.368;2022-08-27T14:38:41;6.40;;;2.10;;
37869;SDS011;62531;53.326;-1.368;2022-08-27T14:42:44;5.13;;;1.60;;
37869;SDS011;62531;53.326;-1.368;2022-08-27T14:46:45;4.73;;;1.50;;
37869;SDS011;62531;53.326;-1.368;2022-08-27T14:50:47;4.97;;;1.98;;
37869;SDS011;62531;53.326;-1.368;2022-08-27T14:54:49;6.78;;;1.63;;
37869;SDS011;62531;53.326;-1.368;2022-08-27T14:58:50;4.40;;;1.30;;
37869;SDS011;62531;53.326;-1.368;2022-08-27T15:02:53;4.70;;;1.33;;
37869;SDS011;62531;53.326;-1.368;2022-08-27T15:06:55;4.47;;;1.65;;
37869;SDS011;62531;53.326;-1.368;2022-08-27T15:10:56;4.38;;;1.30;;
37869;SDS011;62531;53.326;-1.368;2022-08-27T15:14:58;4.37;;;1.70;;
37869;SDS011;62531;53.326;-1.368;2022-08-27T15:18:59;4.32;;;1.50;;
37869;SDS011;62531;53.326;-1.368;2022-08-27T15:23:01;5.65;;;1.50;;
37869;SDS011;62531;53.326;-1.368;2022-08-27T15:27:03;6.43;;;1.90;;
37869;SDS011;62531;53.326;-1.368;2022-08-27T15:31:04;4.22;;;1.45;;
37869;SDS011;62531;53.326;-1.368;2022-08-27T15:35:07;6.07;;;1.50;;
37869;SDS011;62531;53.326;-1.368;2022-08-27T15:39:13;4.88;;;1.67;;
37869;SDS011;62531;53.326;-1.368;2022-08-27T15:43:15;4.93;;;1.50;;
37869;SDS011;62531;53.326;-1.368;2022-08-27T15:47:16;5.45;;;1.60;;
37869;SDS011;62531;53.326;-1.368;2022-08-27T15:51:21;5.78;;;1.52;;
37869;SDS011;62531;53.326;-1.368;2022-08-27T15:55:30;4.87;;;1.30;;
37869;SDS011;62531;53.326;-1.368;2022-08-27T15:59:33;4.32;;;1.30;;
37869;SDS011;62531;53.326;-1.368;2022-08-27T16:03:35;4.90;;;1.63;;
37869;SDS011;62531;53.326;-1.368;2022-08-27T16:07:38;6.30;;;1.93;;
37869;SDS011;62531;53.326;-1.368;2022-08-27T16:11:39;4.82;;;1.40;;
37869;SDS011;62531;53.326;-1.368;2022-08-27T16:15:40;5.13;;;1.80;;
37869;SDS011;62531;53.326;-1.368;2022-08-27T16:19:41;3.83;;;1.38;;
37869;SDS011;62531;53.326;-1.368;2022-08-27T16:23:43;4.40;;;1.53;;
37869;SDS011;62531;53.326;-1.368;2022-08-27T16:27:44;5.10;;;1.50;;
37869;SDS011;62531;53.326;-1.368;2022-08-27T16:31:46;4.45;;;1.52;;
37869;SDS011;62531;53.326;-1.368;2022-08-27T16:35:47;4.97;;;1.30;;
37869;SDS011;62531;53.326;-1.368;2022-08-27T16:39:49;4.43;;;1.27;;
37869;SDS011;62531;53.326;-1.368;2022-08-27T16:43:50;4.07;;;1.20;;
37869;SDS011;62531;53.326;-1.368;2022-08-27T16:47:52;5.63;;;1.47;;
37869;SDS011;62531;53.326;-1.368;2022-08-27T16:52:12;4.50;;;1.45;;
37869;SDS011;62531;53.326;-1.368;2022-08-27T16:56:17;4.22;;;1.25;;
37869;SDS011;62531;53.326;-1.368;2022-08-27T17:00:20;4.38;;;1.45;;
37869;SDS011;62531;53.326;-1.368;2022-08-27T17:04:22;4.73;;;1.57;;
37869;SDS011;62531;53.326;-1.368;2022-08-27T17:08:25;4.55;;;1.15;;
37869;SDS011;62531;53.326;-1.368;2022-08-27T17:12:28;4.90;;;1.50;;
37869;SDS011;62531;53.326;-1.368;2022-08-27T17:16:30;4.60;;;1.30;;
37869;SDS011;62531;53.326;-1.368;2022-08-27T17:20:34;4.45;;;1.23;;
37869;SDS011;62531;53.326;-1.368;2022-08-27T17:24:35;5.68;;;1.48;;
37869;SDS011;62531;53.326;-1.368;2022-08-27T17:28:37;5.63;;;1.77;;
37869;SDS011;62531;53.326;-1.368;2022-08-27T17:32:41;4.43;;;1.30;;
37869;SDS011;62531;53.326;-1.368;2022-08-27T17:36:43;5.13;;;1.52;;
37869;SDS011;62531;53.326;-1.368;2022-08-27T17:40:45;5.07;;;2.00;;
37869;SDS011;62531;53.326;-1.368;2022-08-27T17:44:46;4.30;;;1.20;;
37869;SDS011;62531;53.326;-1.368;2022-08-27T17:48:48;5.53;;;1.38;;
37869;SDS011;62531;53.326;-1.368;2022-08-27T17:52:49;6.45;;;1.70;;
37869;SDS011;62531;53.326;-1.368;2022-08-27T17:56:51;5.87;;;1.67;;
37869;SDS011;62531;53.326;-1.368;2022-08-27T18:00:52;7.82;;;1.80;;
37869;SDS011;62531;53.326;-1.368;2022-08-27T18:04:53;8.82;;;1.95;;
37869;SDS011;62531;53.326;-1.368;2022-08-27T18:08:55;9.90;;;2.37;;
37869;SDS011;62531;53.326;-1.368;2022-08-27T18:12:56;6.90;;;1.75;;
37869;SDS011;62531;53.326;-1.368;2022-08-27T18:16:58;13.35;;;1.95;;
37869;SDS011;62531;53.326;-1.368;2022-08-27T18:21:00;7.50;;;2.10;;
37869;SDS011;62531;53.326;-1.368;2022-08-27T18:25:02;8.03;;;1.83;;
37869;SDS011;62531;53.326;-1.368;2022-08-27T18:29:04;7.07;;;1.95;;
37869;SDS011;62531;53.326;-1.368;2022-08-27T18:33:06;7.57;;;1.98;;
37869;SDS011;62531;53.326;-1.368;2022-08-27T18:37:07;8.33;;;2.00;;
37869;SDS011;62531;53.326;-1.368;2022-08-27T18:41:09;6.93;;;2.15;;
37869;SDS011;62531;53.326;-1.368;2022-08-27T18:45:21;6.45;;;1.50;;
37869;SDS011;62531;53.326;-1.368;2022-08-27T18:49:24;7.17;;;1.97;;
37869;SDS011;62531;53.326;-1.368;2022-08-27T18:53:27;6.75;;;1.98;;
37869;SDS011;62531;53.326;-1.368;2022-08-27T18:57:30;7.05;;;1.77;;
37869;SDS011;62531;53.326;-1.368;2022-08-27T19:01:33;9.80;;;1.98;;
37869;SDS011;62531;53.326;-1.368;2022-08-27T19:05:34;7.00;;;2.10;;
37869;SDS011;62531;53.326;-1.368;2022-08-27T19:09:36;6.78;;;1.90;;
37869;SDS011;62531;53.326;-1.368;2022-08-27T19:13:37;6.75;;;1.80;;
37869;SDS011;62531;53.326;-1.368;2022-08-27T19:17:39;6.40;;;1.80;;
37869;SDS011;62531;53.326;-1.368;2022-08-27T19:21:43;6.45;;;1.70;;
37869;SDS011;62531;53.326;-1.368;2022-08-27T19:25:44;5.65;;;2.05;;
37869;SDS011;62531;53.326;-1.368;2022-08-27T19:29:47;6.90;;;1.90;;
37869;SDS011;62531;53.326;-1.368;2022-08-27T19:33:48;5.00;;;1.70;;
37869;SDS011;62531;53.326;-1.368;2022-08-27T19:37:54;7.55;;;1.70;;
37869;SDS011;62531;53.326;-1.368;2022-08-27T19:41:55;7.55;;;1.50;;
37869;SDS011;62531;53.326;-1.368;2022-08-27T19:45:57;7.40;;;1.50;;
37869;SDS011;62531;53.326;-1.368;2022-08-27T19:50:01;6.78;;;1.52;;
37869;SDS011;62531;53.326;-1.368;2022-08-27T19:54:03;6.25;;;1.55;;
37869;SDS011;62531;53.326;-1.368;2022-08-27T19:58:05;6.20;;;1.40;;
37869;SDS011;62531;53.326;-1.368;2022-08-27T20:02:06;6.15;;;1.75;;
37869;SDS011;62531;53.326;-1.368;2022-08-27T20:06:09;6.82;;;1.60;;
37869;SDS011;62531;53.326;-1.368;2022-08-27T20:10:11;5.23;;;1.60;;
37869;SDS011;62531;53.326;-1.368;2022-08-27T20:14:14;4.97;;;1.20;;
37869;SDS011;62531;53.326;-1.368;2022-08-27T20:18:15;5.70;;;1.42;;
37869;SDS011;62531;53.326;-1.368;2022-08-27T20:22:18;6.22;;;1.77;;
37869;SDS011;62531;53.326;-1.368;2022-08-27T20:26:19;6.47;;;1.50;;
37869;SDS011;62531;53.326;-1.368;2022-08-27T20:30:22;6.95;;;2.10;;
37869;SDS011;62531;53.326;-1.368;2022-08-27T20:34:25;6.38;;;1.50;;
37869;SDS011;62531;53.326;-1.368;2022-08-27T20:38:26;5.70;;;1.40;;
37869;SDS011;62531;53.326;-1.368;2022-08-27T20:42:28;6.40;;;1.17;;
37869;SDS011;62531;53.326;-1.368;2022-08-27T20:46:29;5.15;;;1.52;;
37869;SDS011;62531;53.326;-1.368;2022-08-27T20:50:31;5.13;;;1.53;;
37869;SDS011;62531;53.326;-1.368;2022-08-27T20:54:32;5.35;;;1.40;;
37869;SDS011;62531;53.326;-1.368;2022-08-27T20:58:34;5.75;;;1.42;;
37869;SDS011;62531;53.326;-1.368;2022-08-27T21:02:55;6.38;;;1.83;;
37869;SDS011;62531;53.326;-1.368;2022-08-27T21:06:56;4.63;;;1.10;;
37869;SDS011;62531;53.326;-1.368;2022-08-27T21:10:57;5.22;;;1.40;;
37869;SDS011;62531;53.326;-1.368;2022-08-27T21:15:00;6.13;;;1.55;;
37869;SDS011;62531;53.326;-1.368;2022-08-27T21:19:02;4.90;;;1.27;;
37869;SDS011;62531;53.326;-1.368;2022-08-27T21:23:03;5.65;;;1.33;;
37869;SDS011;62531;53.326;-1.368;2022-08-27T21:27:04;4.60;;;1.25;;
37869;SDS011;62531;53.326;-1.368;2022-08-27T21:31:06;4.70;;;1.60;;
37869;SDS011;62531;53.326;-1.368;2022-08-27T21:35:08;4.72;;;1.23;;
37869;SDS011;62531;53.326;-1.368;2022-08-27T21:39:09;4.95;;;1.40;;
37869;SDS011;62531;53.326;-1.368;2022-08-27T21:43:11;4.32;;;1.30;;
37869;SDS011;62531;53.326;-1.368;2022-08-27T21:47:12;6.43;;;1.40;;
37869;SDS011;62531;53.326;-1.368;2022-08-27T21:51:14;4.10;;;1.10;;
37869;SDS011;62531;53.326;-1.368;2022-08-27T21:55:17;4.30;;;1.10;;
37869;SDS011;62531;53.326;-1.368;2022-08-27T21:59:19;4.97;;;1.13;;
37869;SDS011;62531;53.326;-1.368;2022-08-27T22:03:21;4.60;;;1.27;;
37869;SDS011;62531;53.326;-1.368;2022-08-27T22:07:23;5.10;;;1.20;;
37869;SDS011;62531;53.326;-1.368;2022-08-27T22:11:25;4.03;;;1.40;;
37869;SDS011;62531;53.326;-1.368;2022-08-27T22:15:34;5.07;;;1.10;;
37869;SDS011;62531;53.326;-1.368;2022-08-27T22:19:36;4.82;;;1.20;;
37869;SDS011;62531;53.326;-1.368;2022-08-27T22:23:37;4.18;;;1.33;;
37869;SDS011;62531;53.326;-1.368;2022-08-27T22:27:40;4.83;;;1.40;;
37869;SDS011;62531;53.326;-1.368;2022-08-27T22:31:41;4.05;;;1.20;;
37869;SDS011;62531;53.326;-1.368;2022-08-27T22:35:44;5.07;;;1.17;;
37869;SDS011;62531;53.326;-1.368;2022-08-27T22:39:45;3.90;;;0.93;;
37869;SDS011;62531;53.326;-1.368;2022-08-27T22:43:46;3.83;;;1.00;;
37869;SDS011;62531;53.326;-1.368;2022-08-27T22:47:48;5.13;;;1.30;;
37869;SDS011;62531;53.326;-1.368;2022-08-27T22:51:50;4.73;;;1.30;;
37869;SDS011;62531;53.326;-1.368;2022-08-27T22:55:51;4.45;;;1.30;;
37869;SDS011;62531;53.326;-1.368;2022-08-27T22:59:52;5.05;;;1.40;;
37869;SDS011;62531;53.326;-1.368;2022-08-27T23:03:56;4.78;;;1.40;;
37869;SDS011;62531;53.326;-1.368;2022-08-27T23:07:57;4.57;;;1.50;;
37869;SDS011;62531;53.326;-1.368;2022-08-27T23:11:58;4.05;;;1.30;;
37869;SDS011;62531;53.326;-1.368;2022-08-27T23:16:00;4.80;;;1.50;;
37869;SDS011;62531;53.326;-1.368;2022-08-27T23:20:06;4.13;;;1.10;;
37869;SDS011;62531;53.326;-1.368;2022-08-27T23:24:08;4.00;;;1.30;;
37869;SDS011;62531;53.326;-1.368;2022-08-27T23:28:11;4.80;;;1.40;;
37869;SDS011;62531;53.326;-1.368;2022-08-27T23:32:12;4.30;;;1.43;;
37869;SDS011;62531;53.326;-1.368;2022-08-27T23:36:14;4.43;;;1.30;;
37869;SDS011;62531;53.326;-1.368;2022-08-27T23:40:16;4.90;;;1.35;;
37869;SDS011;62531;53.326;-1.368;2022-08-27T23:44:19;4.57;;;1.17;;
37869;SDS011;62531;53.326;-1.368;2022-08-27T23:48:20;4.23;;;1.10;;
37869;SDS011;62531;53.326;-1.368;2022-08-27T23:52:22;5.07;;;1.42;;
37869;SDS011;62531;53.326;-1.368;2022-08-27T23:56:23;4.22;;;1.15;;
